Terminal Aerodrome Forecast
Issued by NWS Omaha/Valley, NE

Home | Current Version | Previous Version | Text Only | Print | Product List | Glossary On
Versions: 1 2 3 4 5 6 7 8 9 10 11 12 13
000
FTUS43 KOAX 231123
TAFOMA
TAF
KOMA 231123Z 2312/2412 VRB04KT P6SM SKC
     FM231900 18012G18KT P6SM SKC
     FM240000 16011KT P6SM SKC
     FM240900 17011KT P6SM FEW250 WS020/19045KT=

USA.gov is the U.S. government's official web portal to all federal, state and local government web resources and services.